createdAt,value
2019-03-22T00:00:20.196Z,14.93
2019-03-22T00:02:48.734Z,14.33
2019-03-22T00:05:17.203Z,14.63
2019-03-22T00:07:45.632Z,14.63
2019-03-22T00:10:14.104Z,13.70
2019-03-22T00:12:42.551Z,14.67
2019-03-22T00:15:11.153Z,13.57
2019-03-22T00:17:39.681Z,14.07
2019-03-22T00:20:08.654Z,14.33
2019-03-22T00:22:37.178Z,13.33
2019-03-22T00:25:06.943Z,13.50
2019-03-22T00:27:35.438Z,13.40
2019-03-22T00:30:08.911Z,12.87
2019-03-22T00:32:37.434Z,13.97
2019-03-22T00:35:07.408Z,14.00
2019-03-22T00:37:36.065Z,12.83
2019-03-22T00:40:06.714Z,13.20
2019-03-22T00:42:35.167Z,13.10
2019-03-22T00:45:05.648Z,11.83
2019-03-22T00:47:34.181Z,12.77
2019-03-22T00:50:04.209Z,12.93
2019-03-22T00:52:32.724Z,12.73
2019-03-22T00:55:01.180Z,12.37
2019-03-22T00:57:29.619Z,12.90
2019-03-22T00:59:58.071Z,12.07
2019-03-22T01:02:26.528Z,13.43
2019-03-22T01:04:54.987Z,11.93
2019-03-22T01:07:23.421Z,13.03
2019-03-22T01:09:51.876Z,13.53
2019-03-22T01:12:20.392Z,11.80
2019-03-22T01:14:48.858Z,12.03
2019-03-22T01:17:17.276Z,13.13
2019-03-22T01:19:45.728Z,12.67
2019-03-22T01:22:14.168Z,12.70
2019-03-22T01:24:42.620Z,12.53
2019-03-22T01:27:11.057Z,11.23
2019-03-22T01:29:39.501Z,12.30
2019-03-22T01:32:07.948Z,11.70
2019-03-22T01:34:36.398Z,12.17
2019-03-22T01:37:05.027Z,11.13
2019-03-22T01:39:33.566Z,10.93
2019-03-22T01:42:02.107Z,11.00
2019-03-22T01:44:30.593Z,11.17
2019-03-22T01:46:59.088Z,11.40
2019-03-22T01:49:27.617Z,12.03
2019-03-22T01:51:56.123Z,12.70
2019-03-22T01:54:24.601Z,11.93
2019-03-22T01:56:53.138Z,12.13
2019-03-22T01:59:21.551Z,10.93
2019-03-22T02:01:50.032Z,11.60
2019-03-22T02:04:18.462Z,10.80
2019-03-22T02:06:47.053Z,10.77
2019-03-22T02:09:15.569Z,10.27
2019-03-22T02:11:44.089Z,10.83
2019-03-22T02:14:12.524Z,10.73
2019-03-22T02:16:41.052Z,10.97
2019-03-22T02:19:09.547Z,10.00
2019-03-22T02:21:38.079Z,10.73
2019-03-22T02:24:06.525Z,11.43
2019-03-22T02:26:34.988Z,10.37
2019-03-22T02:29:03.490Z,11.33
2019-03-22T02:31:31.948Z,10.47
2019-03-22T02:34:00.372Z,9.37
2019-03-22T02:36:28.834Z,10.27
2019-03-22T02:38:57.279Z,10.20
2019-03-22T02:41:25.740Z,10.63
2019-03-22T02:43:54.841Z,9.80
2019-03-22T02:46:23.458Z,9.83
2019-03-22T02:48:51.912Z,9.93
2019-03-22T02:51:20.452Z,9.87
2019-03-22T02:53:48.891Z,8.90
2019-03-22T02:56:17.328Z,10.50
2019-03-22T02:58:45.892Z,9.50
2019-03-22T03:01:14.324Z,9.70
2019-03-22T03:03:42.788Z,10.93
2019-03-22T03:06:11.215Z,10.17
2019-03-22T03:08:39.677Z,9.90
2019-03-22T03:11:08.106Z,10.17
2019-03-22T03:13:36.565Z,9.93
2019-03-22T03:16:05.009Z,9.57
2019-03-22T03:18:33.487Z,9.50
2019-03-22T03:21:01.929Z,10.27
2019-03-22T03:23:30.415Z,9.90
2019-03-22T03:25:58.867Z,8.80
2019-03-22T03:28:36.731Z,9.70
2019-03-22T03:30:57.783Z,9.70
2019-03-22T03:33:26.319Z,10.10
2019-03-22T03:35:54.869Z,9.50
2019-03-22T03:38:23.346Z,10.03
2019-03-22T03:40:51.911Z,10.23
2019-03-22T03:43:20.370Z,9.40
2019-03-22T03:45:48.813Z,9.37
2019-03-22T03:48:17.244Z,10.40
2019-03-22T03:50:45.695Z,9.43
2019-03-22T03:53:14.136Z,10.60
2019-03-22T03:55:42.597Z,11.53
2019-03-22T03:58:11.084Z,9.60
2019-03-22T04:00:39.596Z,9.67
2019-03-22T04:03:08.101Z,10.80
2019-03-22T04:05:36.572Z,10.60
2019-03-22T04:08:05.410Z,9.97
2019-03-22T04:10:33.923Z,9.97
2019-03-22T04:13:03.315Z,10.40
2019-03-22T04:15:31.762Z,9.43
2019-03-22T04:18:00.314Z,10.20
2019-03-22T04:20:28.809Z,10.60
2019-03-22T04:22:57.232Z,11.07
2019-03-22T04:25:25.719Z,10.90
2019-03-22T04:27:54.236Z,10.73
2019-03-22T04:30:22.722Z,10.67
2019-03-22T04:32:51.160Z,10.17
2019-03-22T04:35:19.620Z,11.13
2019-03-22T04:37:48.072Z,11.17
2019-03-22T04:40:21.852Z,12.00
2019-03-22T04:42:50.375Z,12.37
2019-03-22T04:45:18.912Z,12.43
2019-03-22T04:47:49.625Z,11.63
2019-03-22T04:50:18.419Z,11.20
2019-03-22T04:52:47.030Z,11.10
2019-03-22T04:55:15.903Z,11.20
2019-03-22T04:57:44.523Z,11.50
2019-03-22T05:00:13.291Z,11.40
2019-03-22T05:02:42.080Z,10.87
2019-03-22T05:05:12.359Z,10.77
2019-03-22T05:07:41.642Z,10.17
2019-03-22T05:10:11.796Z,10.33
2019-03-22T05:12:41.499Z,11.33
2019-03-22T05:15:12.842Z,11.20
2019-03-22T05:17:42.939Z,11.43
2019-03-22T05:20:12.127Z,11.23
2019-03-22T05:22:41.709Z,11.20
2019-03-22T05:25:10.982Z,10.33
2019-03-22T05:27:42.846Z,10.20
2019-03-22T05:30:29.296Z,9.47
2019-03-22T05:32:57.752Z,10.80
2019-03-22T05:35:26.180Z,9.60
2019-03-22T05:37:54.639Z,10.57
2019-03-22T05:40:23.075Z,14.43
2019-03-22T05:42:51.528Z,12.00
2019-03-22T05:45:19.953Z,10.43
2019-03-22T05:47:48.443Z,10.97
2019-03-22T05:50:16.923Z,11.57
2019-03-22T05:52:45.360Z,11.57
2019-03-22T05:55:13.919Z,11.07
2019-03-22T05:57:42.342Z,12.90
2019-03-22T06:00:11.045Z,15.37
2019-03-22T06:02:39.493Z,25.03
2019-03-22T06:05:08.013Z,18.43
2019-03-22T06:07:37.145Z,16.40
2019-03-22T06:10:06.930Z,16.67
2019-03-22T06:12:35.437Z,19.20
2019-03-22T06:15:06.953Z,13.90
2019-03-22T06:17:35.408Z,12.20
2019-03-22T06:20:06.316Z,11.00
2019-03-22T06:22:34.748Z,10.03
2019-03-22T06:25:03.660Z,10.60
2019-03-22T06:27:32.141Z,9.77
2019-03-22T06:30:00.665Z,9.87
2019-03-22T06:32:29.161Z,10.13
2019-03-22T06:34:57.627Z,9.90
2019-03-22T06:37:26.042Z,9.37
2019-03-22T06:39:54.509Z,10.27
2019-03-22T06:42:22.944Z,10.17
2019-03-22T06:44:51.392Z,9.90
2019-03-22T06:47:19.987Z,10.83
2019-03-22T06:49:48.478Z,10.30
2019-03-22T06:52:16.919Z,10.23
2019-03-22T06:54:45.422Z,11.23
2019-03-22T06:57:13.879Z,11.43
2019-03-22T06:59:42.318Z,10.27
2019-03-22T07:02:10.780Z,10.70
2019-03-22T07:04:39.205Z,10.30
2019-03-22T07:07:07.646Z,10.07
2019-03-22T07:09:36.161Z,9.70
2019-03-22T07:12:05.156Z,9.50
2019-03-22T07:14:33.659Z,9.67
2019-03-22T07:17:02.107Z,9.83
2019-03-22T07:19:30.540Z,9.03
2019-03-22T07:21:58.985Z,10.20
2019-03-22T07:24:27.423Z,10.20
2019-03-22T07:26:55.866Z,9.70
2019-03-22T07:29:24.286Z,9.97
2019-03-22T07:31:52.740Z,10.20
2019-03-22T07:34:21.252Z,9.97
2019-03-22T07:36:49.871Z,10.03
2019-03-22T07:39:18.283Z,9.90
2019-03-22T07:41:46.756Z,9.70
2019-03-22T07:44:15.192Z,9.80
2019-03-22T07:46:43.656Z,10.20
2019-03-22T07:49:12.079Z,12.57
2019-03-22T07:51:40.619Z,9.90
2019-03-22T07:54:09.054Z,10.93
2019-03-22T07:56:37.497Z,10.53
2019-03-22T07:59:05.943Z,10.47
2019-03-22T08:01:34.367Z,14.40
2019-03-22T08:04:03.008Z,12.47
2019-03-22T08:06:31.447Z,10.70
2019-03-22T08:08:59.904Z,10.53
2019-03-22T08:11:28.339Z,9.17
2019-03-22T08:13:56.798Z,9.53
2019-03-22T08:16:25.261Z,10.17
2019-03-22T08:18:53.801Z,10.53
2019-03-22T08:21:22.307Z,10.23
2019-03-22T08:23:50.969Z,9.53
2019-03-22T08:26:19.484Z,10.40
2019-03-22T08:28:48.023Z,10.10
2019-03-22T08:31:16.476Z,10.43
2019-03-22T08:33:44.971Z,10.67
2019-03-22T08:36:14.912Z,10.10
2019-03-22T08:38:43.675Z,10.43
2019-03-22T08:41:12.130Z,10.27
2019-03-22T08:43:40.575Z,9.70
2019-03-22T08:46:09.034Z,9.93
2019-03-22T08:48:37.500Z,9.73
2019-03-22T08:51:05.933Z,9.37
2019-03-22T08:53:34.383Z,9.67
2019-03-22T08:56:02.914Z,9.13
2019-03-22T08:58:31.352Z,9.47
2019-03-22T09:00:59.834Z,10.77
2019-03-22T09:03:28.281Z,9.53
2019-03-22T09:05:56.756Z,10.40
2019-03-22T09:08:25.261Z,10.53
2019-03-22T09:10:53.716Z,9.97
2019-03-22T09:13:22.140Z,10.10
2019-03-22T09:15:50.733Z,10.70
2019-03-22T09:18:19.208Z,10.00
2019-03-22T09:20:47.788Z,10.10
2019-03-22T09:23:16.273Z,10.00
2019-03-22T09:25:44.931Z,10.00
2019-03-22T09:28:13.455Z,10.70
2019-03-22T09:30:41.917Z,9.40
2019-03-22T09:33:13.241Z,10.40
2019-03-22T09:35:40.597Z,13.67
2019-03-22T09:38:13.136Z,10.90
2019-03-22T09:40:39.327Z,9.80
2019-03-22T09:43:07.836Z,9.60
2019-03-22T09:45:36.469Z,9.27
2019-03-22T09:48:06.272Z,9.17
2019-03-22T09:50:34.975Z,8.77
2019-03-22T09:53:03.475Z,8.60
2019-03-22T09:55:32.134Z,9.20
2019-03-22T09:58:00.634Z,9.07
2019-03-22T10:00:31.413Z,8.13
2019-03-22T10:03:00.546Z,8.47
2019-03-22T10:05:29.056Z,9.47
2019-03-22T10:07:57.521Z,8.77
2019-03-22T10:10:25.964Z,8.70
2019-03-22T10:12:54.650Z,8.60
2019-03-22T10:15:23.342Z,7.90
2019-03-22T10:17:51.896Z,8.40
2019-03-22T10:20:20.430Z,7.43
2019-03-22T10:22:49.042Z,7.10
2019-03-22T10:25:17.610Z,7.63
2019-03-22T10:27:46.061Z,7.07
2019-03-22T10:30:16.916Z,7.00
2019-03-22T10:32:45.437Z,7.57
2019-03-22T10:35:25.559Z,7.43
2019-03-22T10:37:44.289Z,7.67
2019-03-22T10:40:13.107Z,7.70
2019-03-22T10:42:41.665Z,7.30
2019-03-22T10:45:10.491Z,6.67
2019-03-22T10:47:39.085Z,6.20
2019-03-22T10:50:09.334Z,6.10
2019-03-22T10:52:37.879Z,5.47
2019-03-22T10:55:28.405Z,5.70
2019-03-22T10:57:40.281Z,6.17
2019-03-22T11:00:11.912Z,6.10
2019-03-22T11:02:40.509Z,6.03
2019-03-22T11:05:09.031Z,6.00
2019-03-22T11:07:37.483Z,6.73
2019-03-22T11:10:11.111Z,6.73
2019-03-22T11:12:39.282Z,6.10
2019-03-22T11:15:10.433Z,6.33
2019-03-22T11:17:38.936Z,6.67
2019-03-22T11:20:13.548Z,8.00
2019-03-22T11:22:42.152Z,5.60
2019-03-22T11:25:10.853Z,4.37
2019-03-22T11:27:39.449Z,4.73
2019-03-22T11:30:16.940Z,4.77
2019-03-22T11:32:45.615Z,5.23
2019-03-22T11:35:14.684Z,4.50
2019-03-22T11:37:43.180Z,4.60
2019-03-22T11:40:14.574Z,4.10
2019-03-22T11:42:43.118Z,4.17
2019-03-22T11:45:17.723Z,3.87
2019-03-22T11:47:46.244Z,4.23
2019-03-22T11:50:15.088Z,4.50
2019-03-22T11:52:43.583Z,4.30
2019-03-22T11:55:13.698Z,4.00
2019-03-22T11:57:42.261Z,4.30
2019-03-22T12:00:16.551Z,4.07
2019-03-22T12:02:45.076Z,4.03
2019-03-22T12:05:14.839Z,3.70
2019-03-22T12:07:43.519Z,3.93
2019-03-22T12:10:17.269Z,4.30
2019-03-22T12:12:45.851Z,4.00
2019-03-22T12:15:20.132Z,3.70
2019-03-22T12:17:48.737Z,4.00
2019-03-22T12:20:19.248Z,3.93
2019-03-22T12:22:47.876Z,4.00
2019-03-22T12:25:26.370Z,3.93
2019-03-22T12:27:54.847Z,3.80
2019-03-22T12:30:23.282Z,3.40
2019-03-22T12:32:51.793Z,3.57
2019-03-22T12:35:20.380Z,3.43
2019-03-22T12:37:48.852Z,3.40
2019-03-22T12:40:22.208Z,3.10
2019-03-22T12:42:50.907Z,3.63
2019-03-22T12:45:25.069Z,3.87
2019-03-22T12:47:53.657Z,3.70
2019-03-22T12:50:22.620Z,3.77
2019-03-22T12:52:51.212Z,3.60
2019-03-22T12:55:20.053Z,3.53
2019-03-22T12:57:49.451Z,3.40
2019-03-22T13:00:27.424Z,3.10
2019-03-22T13:02:56.016Z,3.50
2019-03-22T13:05:25.188Z,3.47
2019-03-22T13:07:53.723Z,3.30
2019-03-22T13:10:24.060Z,3.47
2019-03-22T13:12:54.784Z,3.40
2019-03-22T13:15:23.503Z,3.13
2019-03-22T13:17:52.023Z,3.10
2019-03-22T13:20:20.547Z,3.23
2019-03-22T13:22:49.018Z,3.20
2019-03-22T13:25:18.089Z,3.37
2019-03-22T13:27:46.599Z,2.87
2019-03-22T13:30:27.215Z,3.13
2019-03-22T13:32:55.643Z,3.10
2019-03-22T13:35:24.242Z,3.33
2019-03-22T13:37:52.704Z,3.00
2019-03-22T13:40:21.134Z,3.00
2019-03-22T13:42:49.568Z,2.70
2019-03-22T13:45:18.108Z,3.30
2019-03-22T13:47:46.527Z,3.37
2019-03-22T13:50:15.082Z,3.07
2019-03-22T13:52:43.515Z,3.40
2019-03-22T13:55:12.397Z,3.00
2019-03-22T13:57:40.849Z,3.00
2019-03-22T14:00:11.916Z,2.70
2019-03-22T14:02:40.365Z,2.80
2019-03-22T14:05:10.151Z,3.40
2019-03-22T14:07:38.668Z,3.07
2019-03-22T14:10:08.646Z,3.10
2019-03-22T14:12:37.463Z,2.73
2019-03-22T14:15:07.368Z,3.50
2019-03-22T14:17:35.842Z,3.10
2019-03-22T14:20:11.231Z,3.80
2019-03-22T14:22:36.144Z,3.53
2019-03-22T14:25:06.046Z,2.97
2019-03-22T14:27:34.501Z,2.93
2019-03-22T14:30:04.959Z,2.73
2019-03-22T14:32:33.445Z,3.70
2019-03-22T14:35:01.922Z,4.17
2019-03-22T14:37:30.349Z,3.77
2019-03-22T14:39:58.903Z,3.17
2019-03-22T14:42:27.345Z,3.10
2019-03-22T14:44:55.785Z,3.30
2019-03-22T14:47:24.241Z,3.23
2019-03-22T14:49:52.727Z,3.17
2019-03-22T14:52:21.210Z,3.10
2019-03-22T14:54:49.656Z,3.30
2019-03-22T14:57:18.115Z,3.63
2019-03-22T14:59:46.541Z,3.30
2019-03-22T15:02:14.979Z,3.73
2019-03-22T15:04:43.402Z,4.10
2019-03-22T15:07:19.608Z,8.43
2019-03-22T15:09:42.011Z,4.77
2019-03-22T15:12:11.587Z,4.23
2019-03-22T15:14:47.435Z,3.90
2019-03-22T15:17:26.605Z,4.70
2019-03-22T15:19:56.712Z,3.73
2019-03-22T15:22:27.041Z,3.50
2019-03-22T15:24:57.158Z,3.70
2019-03-22T15:27:36.287Z,5.33
2019-03-22T15:30:14.671Z,4.53
2019-03-22T15:32:47.706Z,5.30
2019-03-22T15:35:23.712Z,4.97
2019-03-22T15:37:56.804Z,3.83
2019-03-22T15:40:25.237Z,3.43
2019-03-22T15:42:53.678Z,3.60
2019-03-22T15:45:22.177Z,3.80
2019-03-22T15:47:50.707Z,3.30
2019-03-22T15:50:19.600Z,3.53
2019-03-22T15:52:48.136Z,3.57
2019-03-22T15:55:16.726Z,3.70
2019-03-22T15:57:45.256Z,3.40
2019-03-22T16:00:16.767Z,3.57
2019-03-22T16:02:45.544Z,4.17
2019-03-22T16:05:15.410Z,3.70
2019-03-22T16:07:43.840Z,3.63
2019-03-22T16:10:12.747Z,4.20
2019-03-22T16:12:41.263Z,3.60
2019-03-22T16:15:12.627Z,4.37
2019-03-22T16:17:41.309Z,4.53
2019-03-22T16:20:12.334Z,4.50
2019-03-22T16:22:40.852Z,4.00
2019-03-22T16:25:10.749Z,4.20
2019-03-22T16:27:39.248Z,3.80
2019-03-22T16:30:14.795Z,3.90
2019-03-22T16:32:43.310Z,3.47
2019-03-22T16:35:12.443Z,3.97
2019-03-22T16:37:41.162Z,3.83
2019-03-22T16:40:11.262Z,3.90
2019-03-22T16:42:39.893Z,3.87
2019-03-22T16:45:10.848Z,3.50
2019-03-22T16:47:39.371Z,3.60
2019-03-22T16:50:24.645Z,3.73
2019-03-22T16:52:53.166Z,3.60
2019-03-22T16:55:21.641Z,3.80
2019-03-22T16:57:50.158Z,4.00
2019-03-22T17:00:20.237Z,4.00
2019-03-22T17:02:48.744Z,4.03
2019-03-22T17:05:17.281Z,4.37
2019-03-22T17:07:45.816Z,3.87
2019-03-22T17:10:14.436Z,3.77
2019-03-22T17:12:42.963Z,3.53
2019-03-22T17:15:11.784Z,3.60
2019-03-22T17:17:40.259Z,3.50
2019-03-22T17:20:08.991Z,6.30
2019-03-22T17:22:37.440Z,3.33
2019-03-22T17:25:07.627Z,3.60
2019-03-22T17:27:36.070Z,3.90
2019-03-22T17:30:06.914Z,3.90
2019-03-22T17:32:35.372Z,3.60
2019-03-22T17:35:05.807Z,3.70
2019-03-22T17:37:34.260Z,3.83
2019-03-22T17:40:02.955Z,4.30
2019-03-22T17:42:31.408Z,3.90
2019-03-22T17:44:59.891Z,3.77
2019-03-22T17:47:28.416Z,3.93
2019-03-22T17:49:56.839Z,3.70
2019-03-22T17:52:25.286Z,4.17
2019-03-22T17:54:53.736Z,4.10
2019-03-22T17:57:22.249Z,3.83
2019-03-22T17:59:50.783Z,4.67
2019-03-22T18:02:19.223Z,4.47
2019-03-22T18:04:47.699Z,4.43
2019-03-22T18:07:16.149Z,5.40
2019-03-22T18:09:44.607Z,4.73
2019-03-22T18:12:13.061Z,4.80
2019-03-22T18:14:41.582Z,5.77
2019-03-22T18:17:10.011Z,5.33
2019-03-22T18:19:38.472Z,4.87
2019-03-22T18:22:06.894Z,5.23
2019-03-22T18:24:35.352Z,4.87
2019-03-22T18:27:04.121Z,4.77
2019-03-22T18:29:32.709Z,4.30
2019-03-22T18:32:01.127Z,4.13
2019-03-22T18:34:34.200Z,4.27
2019-03-22T18:36:59.825Z,4.30
2019-03-22T18:39:28.276Z,4.50
2019-03-22T18:41:56.718Z,4.73
2019-03-22T18:44:25.271Z,8.30
2019-03-22T18:46:53.787Z,7.77
2019-03-22T18:49:22.291Z,21.37
2019-03-22T18:51:50.773Z,25.60
2019-03-22T18:54:19.570Z,9.23
2019-03-22T18:56:48.064Z,8.47
2019-03-22T18:59:16.491Z,6.10
2019-03-22T19:01:44.975Z,6.20
2019-03-22T19:04:13.413Z,5.53
2019-03-22T19:06:41.876Z,5.30
2019-03-22T19:09:10.394Z,5.20
2019-03-22T19:11:38.858Z,5.30
2019-03-22T19:14:07.299Z,5.00
2019-03-22T19:16:35.773Z,4.97
2019-03-22T19:19:04.295Z,5.40
2019-03-22T19:21:32.819Z,5.43
2019-03-22T19:24:01.234Z,5.33
2019-03-22T19:26:30.583Z,4.80
2019-03-22T19:28:59.208Z,4.30
2019-03-22T19:31:27.681Z,5.20
2019-03-22T19:33:56.127Z,5.10
2019-03-22T19:36:24.597Z,4.97
2019-03-22T19:38:53.015Z,5.13
2019-03-22T19:41:21.454Z,4.47
2019-03-22T19:43:49.996Z,4.80
2019-03-22T19:46:18.427Z,4.77
2019-03-22T19:48:46.908Z,5.10
2019-03-22T19:51:15.508Z,5.50
2019-03-22T19:53:44.038Z,6.37
2019-03-22T19:56:12.470Z,5.93
2019-03-22T19:58:40.940Z,7.90
2019-03-22T20:01:09.407Z,5.60
2019-03-22T20:03:37.947Z,6.30
2019-03-22T20:06:06.396Z,5.90
2019-03-22T20:08:34.872Z,6.13
2019-03-22T20:11:03.289Z,6.43
2019-03-22T20:13:31.848Z,15.30
2019-03-22T20:16:00.289Z,29.13
2019-03-22T20:18:28.764Z,12.43
2019-03-22T20:20:57.193Z,9.53
2019-03-22T20:23:25.815Z,10.83
2019-03-22T20:25:54.320Z,6.23
2019-03-22T20:28:22.891Z,5.80
2019-03-22T20:30:51.419Z,6.20
2019-03-22T20:33:19.913Z,6.10
2019-03-22T20:35:48.460Z,5.83
2019-03-22T20:38:17.050Z,5.93
2019-03-22T20:40:48.345Z,6.20
2019-03-22T20:43:16.883Z,5.73
2019-03-22T20:45:45.645Z,5.83
2019-03-22T20:48:14.172Z,6.03
2019-03-22T20:50:42.625Z,5.63
2019-03-22T20:53:12.483Z,5.87
2019-03-22T20:55:41.054Z,6.00
2019-03-22T20:58:09.553Z,6.47
2019-03-22T21:00:38.106Z,6.13
2019-03-22T21:03:06.600Z,6.20
2019-03-22T21:05:35.060Z,6.60
2019-03-22T21:08:03.525Z,6.30
2019-03-22T21:10:32.138Z,6.57
2019-03-22T21:13:00.569Z,5.87
2019-03-22T21:15:29.109Z,6.50
2019-03-22T21:17:57.658Z,6.23
2019-03-22T21:20:26.183Z,6.23
2019-03-22T21:22:54.624Z,6.13
2019-03-22T21:25:23.083Z,5.77
2019-03-22T21:27:51.540Z,6.17
2019-03-22T21:30:22.395Z,6.50
2019-03-22T21:32:50.415Z,7.33
2019-03-22T21:35:22.820Z,6.93
2019-03-22T21:37:49.225Z,6.97
2019-03-22T21:40:17.762Z,7.47
2019-03-22T21:42:46.358Z,6.67
2019-03-22T21:45:14.881Z,7.07
2019-03-22T21:47:43.482Z,6.43
2019-03-22T21:50:11.924Z,6.10
2019-03-22T21:52:40.428Z,6.40
2019-03-22T21:55:09.115Z,6.50
2019-03-22T21:57:37.721Z,6.23
2019-03-22T22:00:11.220Z,5.80
2019-03-22T22:02:39.741Z,6.17
2019-03-22T22:05:08.826Z,6.60
2019-03-22T22:07:37.352Z,5.90
2019-03-22T22:10:08.198Z,6.10
2019-03-22T22:12:36.696Z,5.90
2019-03-22T22:15:10.767Z,6.60
2019-03-22T22:17:40.766Z,6.40
2019-03-22T22:20:09.528Z,6.37
2019-03-22T22:22:37.983Z,6.03
2019-03-22T22:25:07.099Z,6.80
2019-03-22T22:27:35.710Z,7.27
2019-03-22T22:30:06.709Z,7.30
2019-03-22T22:32:35.124Z,6.50
2019-03-22T22:35:06.052Z,6.70
2019-03-22T22:37:34.494Z,6.60
2019-03-22T22:40:04.430Z,6.90
2019-03-22T22:42:33.351Z,7.30
2019-03-22T22:45:01.803Z,6.57
2019-03-22T22:47:30.220Z,6.43
2019-03-22T22:49:58.708Z,7.40
2019-03-22T22:52:27.349Z,7.70
2019-03-22T22:54:55.926Z,6.57
2019-03-22T22:57:24.355Z,7.10
2019-03-22T22:59:52.807Z,7.50
2019-03-22T23:02:21.337Z,7.23
2019-03-22T23:04:49.779Z,7.13
2019-03-22T23:07:18.211Z,7.20
2019-03-22T23:09:46.671Z,7.60
2019-03-22T23:12:15.105Z,7.70
2019-03-22T23:14:43.636Z,7.63
2019-03-22T23:17:12.176Z,7.07
2019-03-22T23:19:40.666Z,7.57
2019-03-22T23:22:09.123Z,7.10
2019-03-22T23:24:37.541Z,7.30
2019-03-22T23:27:05.989Z,6.93
2019-03-22T23:29:34.440Z,8.43
2019-03-22T23:32:02.914Z,8.17
2019-03-22T23:34:31.336Z,10.27
2019-03-22T23:36:59.812Z,9.13
2019-03-22T23:39:28.243Z,10.87
2019-03-22T23:41:56.696Z,9.50
2019-03-22T23:44:26.009Z,7.60
2019-03-22T23:46:54.467Z,8.33
2019-03-22T23:49:22.913Z,8.13
2019-03-22T23:51:51.416Z,7.90
2019-03-22T23:54:19.906Z,7.80
2019-03-22T23:56:48.435Z,8.80
2019-03-22T23:59:16.868Z,8.67
